Tallahassee Regional Airport

Airport
ICAO code: 
KTLH
Summary
ICAO Region: 
NAM
Territory: 
Location: 
Tallahassee, Florida,
Coordinates: 
Aerial View: 
30° 24' 2.741" N, 84° 21' 17.22" W
Metar
Observation
KTLH 020853Z AUTO 00000KT 10SM FEW024 04/03 A3015 RMK AO2 SLP209 T00390028 56006
Station
Tallahassee, Tallahassee Regional Airport
Date/Time
2021-12-02 08:53:00
Wind direction
Wind speed
00 kts
Lowest cloud amount
few clouds
Temperature
3.9°C
Dew point
2.8°C
Humidity
92%
Weather condition
n/a

Description

Tallahassee Regional Airport public-use airport located 7 km southwest of the central business district of Tallahassee, the Capital City of the state of Florida.

Climatology

Humid “subtropical” climate (Köppen climate classification Cfa) - characterized by hot, humid summers and cool winters. Significant amounts of precipitation occur in all seasons in most areas.

Runways

Designator Length Width Surface Rops
18/36 1852 46 ASP Yes/Yes
9/27 2438 46 ASP Yes/Yes
Airport map: 
Aerial View: 

SKYbrary Partners:

Safety knowledge contributed by: